createdAt,value
2024-05-09T00:01:10.860Z,2.30
2024-05-09T00:31:17.838Z,2.60
2024-05-09T01:01:22.188Z,2.60
2024-05-09T01:31:25.947Z,2.30
2024-05-09T02:01:31.466Z,2.70
2024-05-09T02:31:54.261Z,3.00
2024-05-09T03:01:59.712Z,3.80
2024-05-09T03:32:02.375Z,4.20
2024-05-09T04:02:08.228Z,4.10
2024-05-09T04:32:11.212Z,5.00
2024-05-09T05:02:15.820Z,3.80
2024-05-09T05:32:19.748Z,3.30
2024-05-09T06:02:24.402Z,3.10
2024-05-09T06:32:26.963Z,1.90
2024-05-09T07:02:31.972Z,2.00
2024-05-09T07:32:35.118Z,3.00
2024-05-09T08:02:39.039Z,2.10
2024-05-09T08:32:41.926Z,1.80
2024-05-09T09:02:45.702Z,1.90
2024-05-09T09:32:49.346Z,2.40
2024-05-09T10:02:52.515Z,2.00
2024-05-09T10:32:55.761Z,1.50
2024-05-09T11:02:59.881Z,2.00
2024-05-09T11:33:02.790Z,1.80
2024-05-09T12:03:07.302Z,1.70
2024-05-09T12:33:11.288Z,2.00
2024-05-09T13:03:19.377Z,2.10
2024-05-09T13:33:23.163Z,1.80
2024-05-09T14:03:28.329Z,1.90
2024-05-09T14:33:32.361Z,2.10
2024-05-09T15:03:35.448Z,2.10
2024-05-09T15:33:41.169Z,1.90
2024-05-09T16:03:47.355Z,2.00
2024-05-09T16:33:52.283Z,2.00
2024-05-09T17:03:55.759Z,1.80
2024-05-09T17:33:59.773Z,2.20
2024-05-09T18:04:05.268Z,2.10
2024-05-09T18:34:08.936Z,2.10
2024-05-09T19:04:12.346Z,2.40
2024-05-09T19:34:16.127Z,2.70
2024-05-09T20:04:21.383Z,3.30
2024-05-09T20:34:25.137Z,3.00
2024-05-09T21:04:30.756Z,5.40
2024-05-09T21:34:34.383Z,5.20
2024-05-09T22:04:39.356Z,5.20
2024-05-09T22:34:42.873Z,5.60
2024-05-09T23:04:47.781Z,5.70
2024-05-09T23:34:51.308Z,6.90
